Terminal Aerodrome Forecast
Issued by NWS Sioux Falls, SD

Home | Current Version | Previous Version | Text Only | Print | Product List | Glossary Off
Versions: 1 2 3 4 5 6 7 8 9 10 11 12 13 14 15 16 17 18

000
FTUS43 KFSD 212320
TAFHON
TAF
KHON 212320Z 2200/2224 16018G25KT P6SM SKC
     FM220300 15014G20KT P6SM SCT120
     FM221300 16017G24KT P6SM OVC015
     FM221700 22010KT 5SM -RA BKN015
     FM222100 27006KT P6SM SCT015 BKN035=

USA.gov is the U.S. government's official web portal to all federal, state and local government web resources and services.